Time;durP1;ratioP1;P1;durP2;ratioP2;P2;SDS_P1;SDS_P2;PMS_P1;PMS_P2;Temp;Humidity;BMP_temperature;BMP_pressure;BME280_temperature;BME280_humidity;BME280_pressure;Samples;Min_cycle;Max_cycle;Signal;HPM_P1;HPM_P2
2022/10/15 00:00:50;;;;;;;60.53;40.88;;;12.60;99.90;;;;;;4990359;28;20046;-78
2022/10/15 00:03:16;;;;;;;49.53;35.22;;;13.00;99.90;;;;;;4977185;28;20101;-78
2022/10/15 00:05:41;;;;;;;62.65;41.25;;;13.10;99.90;;;;;;4979445;28;20038;-76
2022/10/15 00:08:09;;;;;;;57.97;40.53;;;12.60;99.90;;;;;;5000617;28;20046;-77
2022/10/15 00:10:35;;;;;;;59.25;37.42;;;13.00;99.90;;;;;;5003637;28;20046;-78
2022/10/15 00:13:01;;;;;;;53.03;36.97;;;13.10;99.90;;;;;;5004057;28;20366;-77
2022/10/15 00:15:27;;;;;;;61.50;38.10;;;12.50;99.90;;;;;;4971805;28;20082;-78
2022/10/15 00:17:53;;;;;;;58.38;39.50;;;13.10;99.90;;;;;;4974431;28;20468;-75
2022/10/15 00:20:18;;;;;;;56.78;39.00;;;12.60;99.90;;;;;;4986035;28;20417;-77
2022/10/15 00:22:44;;;;;;;53.35;38.08;;;12.50;99.90;;;;;;4988498;28;20404;-79
2022/10/15 00:25:10;;;;;;;52.50;36.70;;;12.70;99.90;;;;;;4980522;28;20038;-78
2022/10/15 00:27:36;;;;;;;53.20;37.25;;;12.70;99.90;;;;;;4981013;28;20039;-77
2022/10/15 00:30:03;;;;;;;62.88;38.63;;;12.50;99.90;;;;;;4984280;28;20038;-77
2022/10/15 00:32:30;;;;;;;56.58;39.53;;;12.40;99.90;;;;;;4984777;28;20049;-78
2022/10/15 00:34:56;;;;;;;56.25;38.70;;;13.00;99.90;;;;;;4977673;28;20043;-78
2022/10/15 00:37:22;;;;;;;54.30;38.53;;;12.60;99.90;;;;;;4978729;28;20096;-78
2022/10/15 00:39:48;;;;;;;55.70;36.60;;;13.10;99.90;;;;;;4994443;28;20513;-77
2022/10/15 00:42:14;;;;;;;54.70;39.53;;;13.00;99.90;;;;;;4987067;28;20046;-77
2022/10/15 00:44:49;;;;;;;59.40;40.50;;;12.40;99.90;;;;;;4980137;28;20457;-77
2022/10/15 00:47:17;;;;;;;61.50;38.47;;;13.00;99.90;;;;;;4986971;28;20169;-78
2022/10/15 00:49:54;;;;;;;47.35;36.28;;;13.10;99.90;;;;;;4977901;28;20524;-77
2022/10/15 00:52:29;;;;;;;57.22;39.75;;;12.80;99.90;;;;;;4985460;28;20047;-77
2022/10/15 00:55:02;;;;;;;50.33;38.85;;;12.90;99.90;;;;;;4981692;28;20509;-77
2022/10/15 00:57:30;;;;;;;52.35;38.03;;;13.00;99.90;;;;;;4996519;28;20045;-77
2022/10/15 01:00:00;;;;;;;54.47;38.30;;;12.50;99.90;;;;;;4990621;28;20493;-78
2022/10/15 01:02:26;;;;;;;56.40;40.17;;;13.00;99.90;;;;;;4974609;28;20058;-77
2022/10/15 01:04:52;;;;;;;54.03;36.05;;;13.10;99.90;;;;;;4991712;28;20377;-78
2022/10/15 01:07:18;;;;;;;54.88;38.40;;;12.60;99.90;;;;;;4975282;28;20038;-77
2022/10/15 01:09:45;;;;;;;51.95;37.92;;;13.10;99.90;;;;;;4979245;28;20045;-77
2022/10/15 01:12:34;;;;;;;52.03;36.42;;;12.50;99.90;;;;;;4992022;28;20603;-78
2022/10/15 01:15:02;;;;;;;54.70;35.75;;;12.70;99.90;;;;;;4977465;28;20057;-78
2022/10/15 01:17:31;;;;;;;59.15;38.63;;;12.70;99.90;;;;;;4971996;28;20059;-77
2022/10/15 01:20:15;;;;;;;56.10;37.90;;;12.80;99.90;;;;;;4996741;28;20141;-77
2022/10/15 01:22:56;;;;;;;56.00;37.53;;;12.90;99.90;;;;;;4982069;28;20046;-78
2022/10/15 01:25:46;;;;;;;62.72;38.20;;;12.70;99.90;;;;;;4983012;28;20489;-77
2022/10/15 01:28:32;;;;;;;;;;;12.50;99.90;;;;;;4977175;28;20046;-78
2022/10/15 01:31:09;;;;;;;55.10;40.72;;;12.90;99.90;;;;;;4970968;28;19930;-78
2022/10/15 01:33:49;;;;;;;56.78;40.00;;;12.90;99.90;;;;;;4972917;28;20054;-79
2022/10/15 01:36:20;;;;;;;52.30;38.38;;;12.70;99.90;;;;;;4995061;28;20069;-78
2022/10/15 01:39:00;;;;;;;47.78;36.92;;;12.40;99.90;;;;;;4972607;28;20039;-78
2022/10/15 01:41:33;;;;;;;53.30;37.07;;;12.70;99.90;;;;;;4982058;28;20050;-78
2022/10/15 01:44:22;;;;;;;54.70;35.78;;;12.60;99.90;;;;;;4985729;28;20070;-77
2022/10/15 01:47:03;;;;;;;50.17;35.35;;;12.60;99.90;;;;;;4979826;28;20051;-77
2022/10/15 01:49:33;;;;;;;50.63;35.30;;;12.90;99.90;;;;;;4996441;28;20059;-78
2022/10/15 01:52:15;;;;;;;51.85;35.92;;;12.40;99.90;;;;;;4978755;28;20047;-78
2022/10/15 01:54:42;;;;;;;58.42;37.47;;;12.80;99.90;;;;;;4973253;28;20086;-77
2022/10/15 01:57:11;;;;;;;60.75;37.53;;;12.40;99.90;;;;;;4992513;28;20049;-77
2022/10/15 01:59:36;;;;;;;66.45;38.85;;;12.80;99.90;;;;;;4989621;28;20052;-78
2022/10/15 02:02:02;;;;;;;54.78;37.75;;;12.90;99.90;;;;;;4972292;28;20121;-78
2022/10/15 02:04:30;;;;;;;57.58;39.03;;;12.40;99.90;;;;;;4995049;28;20405;-79
2022/10/15 02:07:11;;;;;;;66.28;37.88;;;12.70;99.90;;;;;;4988313;28;20110;-79
2022/10/15 02:09:59;;;;;;;60.70;37.25;;;13.00;99.90;;;;;;4985562;28;20050;-79
2022/10/15 02:12:46;;;;;;;56.83;34.38;;;12.40;99.90;;;;;;4983028;28;20050;-78
2022/10/15 02:15:18;;;;;;;58.58;36.40;;;12.90;99.90;;;;;;4983107;28;20059;-78
2022/10/15 02:18:01;;;;;;;55.97;38.03;;;12.40;99.90;;;;;;4980370;28;20113;-80
2022/10/15 02:20:40;;;;;;;55.60;34.65;;;12.90;99.90;;;;;;4987828;28;20053;-78
2022/10/15 02:23:23;;;;;;;47.40;33.13;;;12.40;99.90;;;;;;4974109;28;20413;-78
2022/10/15 02:25:51;;;;;;;51.22;34.30;;;12.90;99.90;;;;;;4972991;28;20171;-76
2022/10/15 02:28:17;;;;;;;57.38;34.28;;;12.90;99.90;;;;;;4984322;28;20069;-77
2022/10/15 02:30:47;;;;;;;57.38;35.88;;;12.30;99.90;;;;;;4980824;28;20076;-78
2022/10/15 02:33:16;;;;;;;66.93;38.45;;;12.90;99.90;;;;;;4975716;28;20126;-77
2022/10/15 02:35:43;;;;;;;55.58;32.53;;;13.00;99.90;;;;;;4988801;28;20046;-77
2022/10/15 02:38:12;;;;;;;65.03;39.13;;;13.00;99.90;;;;;;4980413;28;20401;-79
2022/10/15 02:40:41;;;;;;;60.03;38.30;;;12.90;99.90;;;;;;4972263;28;20071;-78
2022/10/15 02:43:09;;;;;;;61.13;38.35;;;12.90;99.90;;;;;;4989467;28;20562;-78
2022/10/15 02:45:35;;;;;;;57.50;37.72;;;12.80;99.90;;;;;;4986369;28;20038;-79
2022/10/15 02:48:01;;;;;;;59.85;35.42;;;12.90;99.90;;;;;;4977840;28;20573;-76
2022/10/15 02:50:27;;;;;;;54.75;36.67;;;12.40;99.90;;;;;;4996626;28;20104;-79
2022/10/15 02:52:52;;;;;;;57.53;37.15;;;12.50;99.90;;;;;;4985697;28;20047;-79
2022/10/15 02:55:18;;;;;;;54.22;36.03;;;13.00;99.90;;;;;;4996477;28;20458;-79
2022/10/15 02:57:43;;;;;;;65.97;39.58;;;12.70;99.90;;;;;;4980678;28;20042;-77
2022/10/15 03:00:10;;;;;;;69.07;38.25;;;12.50;99.90;;;;;;4987814;28;20564;-78
2022/10/15 03:02:36;;;;;;;52.03;35.40;;;12.50;99.90;;;;;;4977892;28;20090;-77
2022/10/15 03:05:01;;;;;;;57.47;35.03;;;12.80;99.90;;;;;;4975479;28;20046;-79
2022/10/15 03:07:27;;;;;;;51.25;35.88;;;12.30;99.90;;;;;;4977472;28;20038;-77
2022/10/15 03:09:52;;;;;;;49.95;35.78;;;12.80;99.90;;;;;;4973913;28;20521;-78
2022/10/15 03:12:22;;;;;;;80.43;37.15;;;12.70;99.90;;;;;;4990018;28;20042;-77
2022/10/15 03:14:48;;;;;;;53.03;33.08;;;12.30;99.90;;;;;;4986227;28;20054;-76
2022/10/15 03:17:14;;;;;;;55.38;35.03;;;12.20;99.90;;;;;;4975736;28;20434;-80
2022/10/15 03:19:40;;;;;;;48.90;32.97;;;12.20;99.90;;;;;;4985938;28;20098;-78
2022/10/15 03:22:05;;;;;;;53.63;33.80;;;12.30;99.90;;;;;;4980451;28;20125;-79
2022/10/15 03:24:31;;;;;;;48.00;33.08;;;12.40;99.90;;;;;;4998797;28;20050;-79
2022/10/15 03:26:57;;;;;;;57.85;38.28;;;12.30;99.90;;;;;;4983054;28;20047;-78
2022/10/15 03:29:22;;;;;;;53.90;35.00;;;12.40;99.90;;;;;;4990250;28;20038;-78
2022/10/15 03:31:48;;;;;;;53.63;34.58;;;12.30;99.90;;;;;;4988967;28;20070;-78
2022/10/15 03:34:13;;;;;;;48.72;33.88;;;12.30;99.90;;;;;;4982852;28;20038;-78
2022/10/15 03:36:39;;;;;;;77.80;39.20;;;12.30;99.90;;;;;;4983869;28;20038;-76
2022/10/15 03:39:06;;;;;;;57.08;37.08;;;12.40;99.90;;;;;;4984707;28;20042;-77
2022/10/15 03:41:32;;;;;;;60.75;37.95;;;12.30;99.90;;;;;;4988661;28;20121;-77
2022/10/15 03:44:05;;;;;;;61.72;38.63;;;12.70;99.90;;;;;;4981722;28;20133;-77
2022/10/15 03:46:31;;;;;;;64.35;38.35;;;12.20;99.90;;;;;;4982822;28;20042;-78
2022/10/15 03:48:57;;;;;;;70.03;38.80;;;12.90;99.90;;;;;;4987239;28;20039;-78
2022/10/15 03:51:22;;;;;;;56.55;36.10;;;12.70;99.90;;;;;;4975861;28;20449;-78
2022/10/15 03:53:48;;;;;;;64.43;39.55;;;12.50;99.90;;;;;;4991333;28;20111;-78
2022/10/15 03:56:14;;;;;;;66.35;38.85;;;12.20;99.90;;;;;;4999829;28;20046;-78
2022/10/15 03:58:40;;;;;;;67.18;40.67;;;12.80;99.90;;;;;;4989652;28;20126;-77
2022/10/15 04:01:14;;;;;;;67.03;39.38;;;12.80;99.90;;;;;;4987445;28;20354;-78
2022/10/15 04:03:40;;;;;;;90.32;42.75;;;12.70;99.90;;;;;;4997913;28;20038;-79
2022/10/15 04:06:07;;;;;;;77.78;41.50;;;12.20;99.90;;;;;;4995675;28;20077;-78
2022/10/15 04:08:32;;;;;;;75.95;42.67;;;12.80;99.90;;;;;;4978419;28;20037;-81
2022/10/15 04:10:58;;;;;;;81.40;43.13;;;12.80;99.90;;;;;;4978276;28;20381;-80
2022/10/15 04:13:25;;;;;;;68.53;42.90;;;12.60;99.90;;;;;;4987807;28;20043;-81
2022/10/15 04:15:51;;;;;;;63.85;38.60;;;12.70;99.90;;;;;;4991973;28;20063;-80
2022/10/15 04:18:16;;;;;;;76.57;43.40;;;12.80;99.90;;;;;;4992116;28;20070;-79
2022/10/15 04:20:42;;;;;;;63.42;38.75;;;12.80;99.90;;;;;;4980659;28;20057;-75
2022/10/15 04:23:09;;;;;;;62.45;36.83;;;12.40;99.90;;;;;;4976080;28;20050;-80
2022/10/15 04:25:36;;;;;;;71.45;40.33;;;12.70;99.90;;;;;;4980331;28;20050;-76
2022/10/15 04:28:01;;;;;;;72.10;39.35;;;12.50;99.90;;;;;;4983110;28;21118;-78
2022/10/15 04:30:27;;;;;;;73.53;41.63;;;12.80;99.90;;;;;;4998781;28;20140;-78
2022/10/15 04:32:53;;;;;;;66.38;41.45;;;12.70;99.90;;;;;;4997668;28;20141;-78
2022/10/15 04:35:19;;;;;;;63.80;39.15;;;12.10;99.90;;;;;;4975791;28;20046;-79
2022/10/15 04:37:45;;;;;;;65.38;37.72;;;12.80;99.90;;;;;;4978451;28;20046;-78
2022/10/15 04:40:12;;;;;;;66.65;39.42;;;12.60;99.90;;;;;;4980455;28;20046;-78
2022/10/15 04:42:38;;;;;;;78.68;44.85;;;12.80;99.90;;;;;;4984735;28;20042;-78
2022/10/15 04:45:05;;;;;;;67.78;39.88;;;12.20;99.90;;;;;;4994179;28;20089;-77
2022/10/15 04:47:30;;;;;;;73.28;42.30;;;12.60;99.90;;;;;;4981732;28;20050;-79
2022/10/15 04:49:56;;;;;;;66.78;40.33;;;12.60;99.90;;;;;;4981193;28;20035;-78
2022/10/15 04:52:22;;;;;;;75.40;42.15;;;12.20;99.90;;;;;;4973470;28;20042;-78
2022/10/15 04:54:48;;;;;;;63.03;39.63;;;12.20;99.90;;;;;;4994109;28;20042;-79
2022/10/15 04:57:13;;;;;;;73.43;42.13;;;12.30;99.90;;;;;;4978916;28;20046;-80
2022/10/15 04:59:39;;;;;;;74.35;43.67;;;12.50;99.90;;;;;;4984623;28;20490;-78
2022/10/15 05:02:05;;;;;;;69.65;39.75;;;12.60;99.90;;;;;;4980966;28;20516;-78
2022/10/15 05:04:31;;;;;;;66.28;42.90;;;12.50;99.90;;;;;;4970432;28;20530;-78
2022/10/15 05:06:56;;;;;;;74.38;44.40;;;12.10;99.90;;;;;;4980357;28;20434;-79
2022/10/15 05:09:22;;;;;;;73.43;45.22;;;12.60;99.90;;;;;;4978110;28;20400;-76
2022/10/15 05:11:47;;;;;;;75.53;45.38;;;12.20;99.90;;;;;;5003154;28;20435;-80
2022/10/15 05:14:14;;;;;;;68.85;41.95;;;12.10;99.90;;;;;;4991614;28;20404;-81
2022/10/15 05:16:39;;;;;;;69.03;44.22;;;12.70;99.90;;;;;;4978338;28;20045;-78
2022/10/15 05:19:07;;;;;;;72.43;45.72;;;12.10;99.90;;;;;;4991193;28;20050;-79
2022/10/15 05:21:34;;;;;;;70.70;46.17;;;12.60;99.90;;;;;;4984405;28;20054;-78
2022/10/15 05:24:00;;;;;;;65.50;44.35;;;12.60;99.90;;;;;;4989742;28;20125;-80
2022/10/15 05:26:28;;;;;;;73.55;45.65;;;12.50;99.90;;;;;;4997747;28;20039;-75
2022/10/15 05:28:55;;;;;;;82.28;50.45;;;12.50;99.90;;;;;;4981197;28;20058;-77
2022/10/15 05:31:23;;;;;;;73.85;49.63;;;12.20;99.90;;;;;;4974608;28;20098;-78
2022/10/15 05:33:50;;;;;;;80.38;48.72;;;12.60;99.90;;;;;;4975603;28;20121;-75
2022/10/15 05:36:27;;;;;;;80.90;49.10;;;12.10;99.90;;;;;;4980386;28;20081;-76
2022/10/15 05:38:59;;;;;;;70.07;44.53;;;12.60;99.90;;;;;;4989612;28;20042;-76
2022/10/15 05:41:25;;;;;;;76.43;46.58;;;12.20;99.90;;;;;;4989346;28;20077;-77
2022/10/15 05:43:54;;;;;;;80.72;50.35;;;12.10;99.90;;;;;;4993204;28;20034;-77
2022/10/15 05:46:21;;;;;;;83.50;51.38;;;12.50;99.90;;;;;;4988767;28;20101;-77
2022/10/15 05:48:54;;;;;;;78.80;48.80;;;12.40;99.90;;;;;;4996568;28;20085;-76
2022/10/15 05:51:20;;;;;;;107.55;56.20;;;12.60;99.90;;;;;;4976261;28;20046;-76
2022/10/15 05:53:46;;;;;;;84.05;53.95;;;12.60;99.90;;;;;;4984696;28;20047;-75
2022/10/15 05:56:13;;;;;;;92.88;55.45;;;12.30;99.90;;;;;;4991822;28;20085;-75
2022/10/15 05:58:39;;;;;;;95.75;59.42;;;12.20;99.90;;;;;;4984126;28;20062;-76
2022/10/15 06:01:08;;;;;;;95.88;56.28;;;12.20;99.90;;;;;;5001247;28;20046;-75
2022/10/15 06:03:34;;;;;;;83.78;50.00;;;12.60;99.90;;;;;;5002995;28;20489;-75
2022/10/15 06:06:00;;;;;;;102.00;58.25;;;12.70;99.90;;;;;;4990584;28;20042;-76
2022/10/15 06:08:28;;;;;;;89.15;50.25;;;12.40;99.90;;;;;;4980529;28;20088;-76
2022/10/15 06:10:55;;;;;;;94.82;55.22;;;12.20;99.90;;;;;;4995628;28;20436;-76
2022/10/15 06:13:21;;;;;;;93.40;51.17;;;12.10;99.90;;;;;;4980500;28;20406;-77
2022/10/15 06:15:47;;;;;;;109.80;58.45;;;12.30;99.90;;;;;;4979327;28;20059;-77
2022/10/15 06:18:15;;;;;;;101.38;57.15;;;12.70;99.90;;;;;;4974124;28;20043;-76
2022/10/15 06:20:49;;;;;;;101.20;57.88;;;12.70;99.90;;;;;;4980667;28;20038;-76
2022/10/15 06:23:17;;;;;;;103.40;59.45;;;12.70;99.90;;;;;;4978939;28;20050;-78
2022/10/15 06:25:43;;;;;;;111.55;55.53;;;12.70;99.90;;;;;;4982699;28;20093;-77
2022/10/15 06:28:09;;;;;;;101.30;59.50;;;12.20;99.90;;;;;;4985845;28;20050;-76
2022/10/15 06:30:34;;;;;;;109.55;57.05;;;12.20;99.90;;;;;;5003428;28;20034;-76
2022/10/15 06:33:00;;;;;;;97.80;54.67;;;12.20;99.90;;;;;;4996285;28;20486;-77
2022/10/15 06:35:29;;;;;;;102.25;57.60;;;12.80;99.90;;;;;;4980384;28;20354;-76
2022/10/15 06:37:55;;;;;;;105.57;55.20;;;12.20;99.90;;;;;;4979347;28;20047;-75
2022/10/15 06:40:21;;;;;;;99.63;55.03;;;12.20;99.90;;;;;;5008792;28;20339;-76
2022/10/15 06:42:46;;;;;;;96.40;55.97;;;12.40;99.90;;;;;;5001918;28;20046;-76
2022/10/15 06:45:13;;;;;;;99.05;54.88;;;12.30;99.90;;;;;;4992688;28;20049;-76
2022/10/15 06:47:41;;;;;;;99.65;57.63;;;12.80;99.90;;;;;;4974032;28;20057;-76
2022/10/15 06:50:08;;;;;;;91.70;49.85;;;12.90;99.90;;;;;;4978794;28;20054;-75
2022/10/15 06:52:34;;;;;;;98.75;56.38;;;12.40;99.90;;;;;;4988195;28;20061;-76
2022/10/15 06:55:00;;;;;;;107.18;58.88;;;12.20;99.90;;;;;;4989765;28;20042;-76
2022/10/15 06:57:28;;;;;;;103.05;55.78;;;12.30;99.90;;;;;;4972844;28;20058;-76
2022/10/15 06:59:55;;;;;;;95.13;54.00;;;12.30;99.90;;;;;;4986180;28;20413;-76
2022/10/15 07:02:21;;;;;;;94.75;54.85;;;12.30;99.90;;;;;;5003437;28;20050;-76
2022/10/15 07:04:47;;;;;;;92.95;55.80;;;12.40;99.90;;;;;;4991264;28;20049;-76
2022/10/15 07:07:13;;;;;;;93.47;54.63;;;12.90;99.90;;;;;;4978426;28;20046;-78
2022/10/15 07:09:39;;;;;;;96.85;57.03;;;12.70;99.90;;;;;;4979821;28;20094;-81
2022/10/15 07:12:05;;;;;;;102.35;57.30;;;12.30;99.90;;;;;;4971688;28;20576;-79
2022/10/15 07:14:31;;;;;;;90.35;54.40;;;12.40;99.90;;;;;;4986714;28;20083;-78
2022/10/15 07:16:57;;;;;;;97.40;55.30;;;12.30;99.90;;;;;;4998217;28;20121;-79
2022/10/15 07:19:23;;;;;;;95.82;52.97;;;12.50;99.90;;;;;;4985909;28;20039;-79
2022/10/15 07:21:49;;;;;;;92.20;54.95;;;12.70;99.90;;;;;;5000731;28;20447;-75
2022/10/15 07:24:15;;;;;;;100.30;60.53;;;12.40;99.90;;;;;;4978476;28;20055;-78
2022/10/15 07:26:40;;;;;;;101.88;58.22;;;12.40;99.90;;;;;;4995089;28;20061;-77
2022/10/15 07:29:06;;;;;;;97.05;57.88;;;13.00;99.90;;;;;;4974957;28;20038;-76
2022/10/15 07:31:32;;;;;;;105.70;58.58;;;12.60;99.90;;;;;;4985818;28;20116;-77
2022/10/15 07:33:58;;;;;;;103.47;59.22;;;12.50;99.90;;;;;;4979536;28;20046;-77
2022/10/15 07:36:24;;;;;;;108.47;60.83;;;13.00;99.90;;;;;;5003379;28;20034;-77
2022/10/15 07:38:50;;;;;;;105.55;60.05;;;12.60;99.90;;;;;;4979018;28;20048;-76
2022/10/15 07:41:16;;;;;;;94.60;54.83;;;12.60;99.90;;;;;;4990579;28;20121;-79
2022/10/15 07:43:42;;;;;;;95.35;55.58;;;12.80;99.90;;;;;;4987893;28;20052;-77
2022/10/15 07:46:08;;;;;;;99.63;55.13;;;12.70;99.90;;;;;;4984515;28;20246;-77
2022/10/15 07:48:33;;;;;;;95.28;55.92;;;13.20;99.90;;;;;;4973111;28;20115;-77
2022/10/15 07:51:02;;;;;;;104.80;59.80;;;12.80;99.90;;;;;;4997778;28;20117;-78
2022/10/15 07:53:28;;;;;;;101.07;58.13;;;12.80;99.90;;;;;;4985282;28;20117;-75
2022/10/15 07:56:02;;;;;;;96.40;57.80;;;13.20;99.90;;;;;;4999956;28;20130;-75
2022/10/15 07:58:29;;;;;;;119.38;61.67;;;12.80;99.90;;;;;;5006287;28;20100;-76
2022/10/15 08:00:58;;;;;;;108.47;59.22;;;12.90;99.90;;;;;;4980373;28;20042;-76
2022/10/15 08:03:23;;;;;;;103.95;57.88;;;13.00;99.90;;;;;;4990395;28;20050;-76
2022/10/15 08:05:52;;;;;;;106.07;59.17;;;12.80;99.90;;;;;;4985071;28;20386;-76
2022/10/15 08:08:18;;;;;;;105.57;57.70;;;13.00;99.90;;;;;;4989426;28;20044;-73
2022/10/15 08:10:45;;;;;;;96.70;55.45;;;12.80;99.90;;;;;;4992799;28;20081;-75
2022/10/15 08:13:11;;;;;;;99.60;56.97;;;12.90;99.90;;;;;;5005979;28;20082;-73
2022/10/15 08:15:40;;;;;;;113.93;60.33;;;12.70;99.90;;;;;;4978874;28;20513;-75
2022/10/15 08:18:07;;;;;;;113.63;60.07;;;12.60;99.90;;;;;;4993431;28;20454;-74
2022/10/15 08:20:32;;;;;;;103.20;58.03;;;13.30;99.90;;;;;;4981504;28;20450;-74
2022/10/15 08:22:58;;;;;;;109.80;59.83;;;12.70;99.90;;;;;;4973602;28;20164;-76
2022/10/15 08:25:24;;;;;;;102.03;54.25;;;13.20;99.90;;;;;;4988210;28;20355;-74
2022/10/15 08:27:52;;;;;;;114.65;59.17;;;13.30;99.90;;;;;;4989536;28;20060;-77
2022/10/15 08:30:18;;;;;;;108.47;59.88;;;13.30;99.90;;;;;;4981333;28;20053;-77
2022/10/15 08:32:43;;;;;;;91.35;51.70;;;13.40;99.90;;;;;;4976627;28;20042;-79
2022/10/15 08:35:09;;;;;;;112.70;56.20;;;13.30;99.90;;;;;;4979427;28;20038;-78
2022/10/15 08:37:35;;;;;;;107.40;55.45;;;12.80;99.90;;;;;;4996937;28;20504;-79
2022/10/15 08:40:01;;;;;;;111.70;54.72;;;13.20;99.90;;;;;;4990185;28;20409;-77
2022/10/15 08:42:40;;;;;;;109.53;55.85;;;13.30;99.90;;;;;;4976142;28;20499;-82
2022/10/15 08:45:12;;;;;;;98.68;54.78;;;13.30;99.90;;;;;;4982133;28;20070;-78
2022/10/15 08:47:45;;;;;;;89.68;50.17;;;12.90;99.90;;;;;;4978448;28;20065;-80
2022/10/15 08:50:39;;;;;;;89.22;52.20;;;12.90;99.90;;;;;;4990425;28;20046;-77
2022/10/15 08:53:10;;;;;;;92.25;52.47;;;13.50;99.90;;;;;;4987754;28;20099;-80
2022/10/15 08:55:39;;;;;;;100.10;49.42;;;12.90;99.90;;;;;;5003631;28;20052;-79
2022/10/15 08:58:14;;;;;;;100.38;52.90;;;12.80;99.90;;;;;;4989030;28;20049;-81
2022/10/15 09:00:49;;;;;;;96.97;50.05;;;13.30;99.90;;;;;;4986216;28;20437;-77
2022/10/15 09:03:40;;;;;;;86.20;48.80;;;13.00;99.90;;;;;;4970973;28;20069;-79
2022/10/15 09:06:23;;;;;;;91.07;51.63;;;12.90;99.90;;;;;;4975540;28;20185;-79
2022/10/15 09:09:07;;;;;;;81.18;47.85;;;13.40;99.90;;;;;;4977560;28;20038;-78
2022/10/15 09:12:14;;;;;;;91.10;50.58;;;12.80;99.90;;;;;;4989900;28;20074;-78
2022/10/15 09:14:43;;;;;;;101.78;54.40;;;12.90;99.90;;;;;;5000176;28;20049;-77
2022/10/15 09:17:23;;;;;;;89.93;51.90;;;13.20;99.90;;;;;;4987331;28;20050;-79
2022/10/15 09:19:53;;;;;;;97.10;54.00;;;13.30;99.90;;;;;;4976330;28;20057;-79
2022/10/15 09:22:24;;;;;;;92.32;51.90;;;12.80;99.90;;;;;;4986771;28;20165;-79
2022/10/15 09:24:49;;;;;;;89.53;51.53;;;13.30;99.90;;;;;;4983039;28;20133;-79
2022/10/15 09:27:33;;;;;;;92.90;53.58;;;13.20;99.90;;;;;;4981869;28;20122;-78
2022/10/15 09:30:24;;;;;;;73.60;46.78;;;12.90;99.90;;;;;;4989990;28;20073;-76
2022/10/15 09:32:55;;;;;;;76.13;46.25;;;12.80;99.90;;;;;;4993862;28;20121;-79
2022/10/15 09:35:48;;;;;;;79.68;44.25;;;13.40;99.90;;;;;;4975819;28;20042;-77
2022/10/15 09:38:26;;;;;;;77.57;44.17;;;13.40;99.90;;;;;;4979478;28;20070;-77
2022/10/15 09:41:03;;;;;;;80.57;43.88;;;13.50;99.90;;;;;;4980829;28;20401;-74
2022/10/15 09:43:37;;;;;;;65.13;39.53;;;13.00;99.90;;;;;;4994805;28;20050;-73
2022/10/15 09:46:03;;;;;;;56.80;34.25;;;13.00;99.90;;;;;;4988794;28;20354;-75
2022/10/15 09:48:35;;;;;;;59.88;38.20;;;13.50;99.90;;;;;;5001478;28;20042;-75
2022/10/15 09:51:20;;;;;;;52.90;30.65;;;13.60;99.90;;;;;;4989342;28;20039;-75
2022/10/15 09:53:55;;;;;;;57.75;33.63;;;13.10;99.90;;;;;;4971190;28;20058;-74
2022/10/15 09:56:33;;;;;;;49.33;31.52;;;13.10;99.90;;;;;;4992576;28;20132;-74
2022/10/15 09:58:59;;;;;;;57.30;33.03;;;13.00;99.90;;;;;;5010259;28;20041;-74
2022/10/15 10:01:27;;;;;;;49.80;32.22;;;13.60;99.90;;;;;;5009926;28;20045;-75
2022/10/15 10:04:16;;;;;;;51.00;34.10;;;13.20;99.90;;;;;;5012559;28;20046;-75
2022/10/15 10:07:03;;;;;;;53.90;32.42;;;13.70;99.90;;;;;;4983569;28;20042;-75
2022/10/15 10:09:35;;;;;;;49.55;30.38;;;13.20;99.90;;;;;;4997260;28;20386;-75
2022/10/15 10:12:07;;;;;;;55.45;33.95;;;13.20;99.90;;;;;;5000868;28;20077;-75
2022/10/15 10:14:41;;;;;;;56.75;33.58;;;13.80;99.90;;;;;;5011650;28;20054;-74
2022/10/15 10:17:19;;;;;;;49.60;32.85;;;13.80;99.90;;;;;;5011251;28;20057;-75
2022/10/15 10:20:01;;;;;;;45.58;30.40;;;13.40;99.90;;;;;;4995688;28;20057;-75
2022/10/15 10:22:27;;;;;;;53.28;32.70;;;14.00;99.90;;;;;;4989986;28;20134;-75
2022/10/15 10:24:52;;;;;;;47.05;29.38;;;13.90;99.90;;;;;;5012064;28;20124;-77
2022/10/15 10:27:24;;;;;;;49.67;29.67;;;13.50;99.90;;;;;;4999739;28;20080;-75
2022/10/15 10:30:01;;;;;;;44.45;28.50;;;13.60;99.90;;;;;;5010557;28;20049;-76
2022/10/15 10:32:30;;;;;;;47.47;29.30;;;14.10;99.90;;;;;;4987769;28;20097;-75
2022/10/15 10:34:58;;;;;;;39.75;26.15;;;13.60;99.90;;;;;;4973001;28;20051;-78
2022/10/15 10:37:24;;;;;;;33.00;23.02;;;13.80;99.90;;;;;;4985475;28;20042;-74
2022/10/15 10:39:58;;;;;;;34.55;22.95;;;14.10;99.90;;;;;;5006054;28;20041;-76
2022/10/15 10:42:23;;;;;;;30.35;22.52;;;14.10;99.90;;;;;;5005382;28;20377;-76
2022/10/15 10:44:51;;;;;;;27.95;19.52;;;14.20;99.90;;;;;;5005499;28;20038;-76
2022/10/15 10:47:24;;;;;;;27.92;20.13;;;13.70;99.90;;;;;;4989854;28;20129;-76
2022/10/15 10:49:51;;;;;;;31.90;20.00;;;13.90;99.90;;;;;;4990155;28;20758;-75
2022/10/15 10:52:35;;;;;;;30.00;20.02;;;13.80;99.90;;;;;;4997569;28;20049;-76
2022/10/15 10:55:11;;;;;;;23.75;17.25;;;13.90;99.90;;;;;;5001844;28;20460;-74
2022/10/15 10:57:47;;;;;;;25.92;19.92;;;14.10;99.90;;;;;;4978981;28;20133;-77
2022/10/15 11:00:22;;;;;;;21.98;16.73;;;14.50;99.90;;;;;;4989935;28;20046;-76
2022/10/15 11:02:50;;;;;;;19.52;15.73;;;14.10;99.90;;;;;;4990175;28;20054;-74
2022/10/15 11:05:23;;;;;;;22.13;17.42;;;14.60;99.90;;;;;;4989731;28;20047;-75
2022/10/15 11:07:53;;;;;;;24.27;18.40;;;14.30;99.90;;;;;;5005848;28;20388;-75
2022/10/15 11:10:30;;;;;;;18.33;15.17;;;14.70;99.90;;;;;;5002118;28;20074;-77
2022/10/15 11:13:02;;;;;;;20.55;16.70;;;14.60;99.90;;;;;;4988205;28;20078;-76
2022/10/15 11:15:41;;;;;;;23.02;17.65;;;14.30;99.90;;;;;;4990844;28;20066;-76
2022/10/15 11:18:20;;;;;;;20.17;15.25;;;14.30;99.90;;;;;;4979432;28;20054;-77
2022/10/15 11:20:56;;;;;;;18.05;15.60;;;14.30;99.90;;;;;;4990857;28;20049;-78
2022/10/15 11:23:56;;;;;;;19.40;14.38;;;14.30;99.90;;;;;;4993558;28;20118;-75
2022/10/15 11:26:40;;;;;;;16.92;13.35;;;14.50;99.90;;;;;;4980409;28;20134;-77
2022/10/15 11:29:30;;;;;;;19.98;15.75;;;14.70;99.90;;;;;;4982456;28;20038;-79
2022/10/15 11:32:20;;;;;;;17.05;13.15;;;15.00;99.90;;;;;;4972823;28;20097;-80
2022/10/15 11:34:45;;;;;;;14.98;12.90;;;14.90;99.90;;;;;;4996799;28;20049;-79
2022/10/15 11:37:26;;;;;;;15.98;12.40;;;14.70;99.90;;;;;;4977106;28;20078;-77
2022/10/15 11:39:58;;;;;;;16.45;13.23;;;15.00;99.90;;;;;;4985146;28;20141;-78
2022/10/15 11:42:34;;;;;;;18.55;14.60;;;15.10;99.90;;;;;;4991561;28;20080;-77
2022/10/15 11:45:15;;;;;;;15.32;12.77;;;15.00;99.90;;;;;;4980489;28;20053;-76
2022/10/15 11:47:53;;;;;;;18.30;13.20;;;15.10;99.90;;;;;;4992793;28;20042;-78
2022/10/15 11:50:22;;;;;;;17.13;13.95;;;14.70;99.90;;;;;;4991725;28;20043;-77
2022/10/15 11:52:59;;;;;;;17.77;14.00;;;14.80;99.90;;;;;;4988881;28;20100;-79
2022/10/15 11:55:52;;;;;;;17.20;13.10;;;15.00;99.90;;;;;;5010732;28;20477;-77
2022/10/15 11:58:41;;;;;;;16.65;12.57;;;14.80;99.90;;;;;;4972323;28;20072;-76
2022/10/15 12:01:22;;;;;;;15.60;12.10;;;14.80;99.90;;;;;;4976671;28;20042;-77
2022/10/15 12:03:54;;;;;;;15.05;13.35;;;15.00;99.90;;;;;;4981633;28;20381;-78
2022/10/15 12:06:23;;;;;;;15.55;12.60;;;15.00;99.90;;;;;;4989183;28;20034;-74
2022/10/15 12:08:50;;;;;;;15.95;12.77;;;14.80;99.90;;;;;;4982505;28;20046;-79
2022/10/15 12:11:29;;;;;;;15.13;12.57;;;14.80;99.90;;;;;;5004248;28;20042;-77
2022/10/15 12:14:10;;;;;;;18.80;14.20;;;15.00;99.90;;;;;;5017834;28;20057;-77
2022/10/15 12:16:43;;;;;;;;;;;14.90;99.90;;;;;;4986920;28;20143;-77
2022/10/15 12:19:19;;;;;;;18.65;15.73;;;15.10;99.90;;;;;;4976839;28;20024;-78
2022/10/15 12:21:54;;;;;;;18.23;16.30;;;14.80;99.90;;;;;;4981394;28;20050;-76
2022/10/15 12:24:46;;;;;;;16.70;14.00;;;14.80;99.90;;;;;;4983982;28;20038;-79
2022/10/15 12:27:18;;;;;;;18.15;14.57;;;14.80;99.90;;;;;;4994462;28;20046;-75
2022/10/15 12:29:48;;;;;;;18.08;16.13;;;14.80;99.90;;;;;;4977603;28;20090;-78
2022/10/15 12:32:41;;;;;;;18.73;15.05;;;15.00;99.90;;;;;;4977990;28;20046;-78
2022/10/15 12:35:48;;;;;;;22.88;16.75;;;14.80;99.90;;;;;;4979669;28;20094;-77
2022/10/15 12:38:19;;;;;;;18.98;15.98;;;14.80;99.90;;;;;;4969547;28;20054;-77
2022/10/15 12:40:45;;;;;;;19.88;16.52;;;14.70;99.90;;;;;;4975678;28;20053;-78
2022/10/15 12:43:20;;;;;;;17.13;15.30;;;15.10;99.90;;;;;;4975885;28;20073;-78